createdAt,value
2023-03-21T05:24:28.361Z,10.05
2023-03-21T05:29:41.262Z,10.15
2023-03-21T05:32:08.101Z,10.38
2023-03-21T05:34:34.993Z,10.58
2023-03-21T05:37:03.913Z,11.25
2023-03-21T05:39:30.720Z,11.53
2023-03-21T05:41:57.586Z,11.47
2023-03-21T05:44:24.379Z,11.06
2023-03-21T05:46:50.888Z,11.32
2023-03-21T05:49:19.878Z,11.13
2023-03-21T05:51:47.285Z,11.02
2023-03-21T05:54:14.185Z,11.51
2023-03-21T05:56:41.618Z,11.95
2023-03-21T05:59:08.461Z,12.00
2023-03-21T06:01:35.163Z,11.73
2023-03-21T06:04:01.976Z,12.13
2023-03-21T06:06:28.781Z,12.32
2023-03-21T06:08:58.786Z,12.33
2023-03-21T06:11:29.843Z,12.43
2023-03-21T06:13:59.872Z,12.58
2023-03-21T06:16:26.650Z,12.67
2023-03-21T06:18:55.440Z,12.79
2023-03-21T06:21:21.940Z,12.88
2023-03-21T06:23:48.783Z,12.90
2023-03-21T06:26:15.573Z,12.86
2023-03-21T06:28:42.128Z,12.85
2023-03-21T06:31:09.691Z,12.95
2023-03-21T06:33:36.413Z,12.56
2023-03-21T06:36:03.582Z,12.71
2023-03-21T06:38:31.169Z,12.94
2023-03-21T06:41:00.323Z,13.02
2023-03-21T06:43:29.094Z,13.03
2023-03-21T06:45:55.600Z,12.81
2023-03-21T06:48:23.089Z,12.87
2023-03-21T06:50:50.814Z,12.74
2023-03-21T06:53:17.470Z,12.32
2023-03-21T06:55:46.442Z,12.80
2023-03-21T06:58:13.503Z,13.10
2023-03-21T07:00:41.750Z,13.37
2023-03-21T07:03:08.509Z,13.12
2023-03-21T07:05:35.553Z,13.12
2023-03-21T07:08:02.242Z,13.09
2023-03-21T07:10:29.082Z,13.44
2023-03-21T07:12:55.871Z,12.93
2023-03-21T07:15:24.910Z,12.87
2023-03-21T07:20:36.653Z,12.90
2023-03-21T07:23:03.983Z,12.33
2023-03-21T07:25:30.679Z,12.37
2023-03-21T07:27:57.738Z,12.69
2023-03-21T07:30:24.648Z,12.97
2023-03-21T07:32:58.698Z,12.79
2023-03-21T07:35:26.205Z,12.99
2023-03-21T07:37:53.168Z,13.33
2023-03-21T07:40:22.119Z,13.67
2023-03-21T07:42:49.700Z,13.76
2023-03-21T07:45:19.878Z,13.75
2023-03-21T07:47:47.721Z,13.99
2023-03-21T07:50:15.290Z,14.13
2023-03-21T07:52:41.817Z,13.76
2023-03-21T07:55:08.418Z,14.14
2023-03-21T07:57:35.901Z,14.28
2023-03-21T08:00:04.273Z,14.16
2023-03-21T08:02:31.012Z,14.11
2023-03-21T08:05:04.206Z,13.76
2023-03-21T08:07:35.104Z,13.81
2023-03-21T08:10:01.871Z,13.74
2023-03-21T08:12:30.841Z,14.02
2023-03-21T08:15:01.004Z,14.01
2023-03-21T08:17:30.473Z,14.16
2023-03-21T08:19:57.297Z,14.27
2023-03-21T08:22:24.314Z,13.75
2023-03-21T08:24:52.980Z,13.87
2023-03-21T08:27:21.844Z,13.40
2023-03-21T08:29:48.620Z,12.90
2023-03-21T08:32:16.127Z,13.52
2023-03-21T08:34:42.953Z,14.06
2023-03-21T08:37:12.091Z,14.03
2023-03-21T08:39:39.258Z,13.06
2023-03-21T08:42:06.666Z,13.43
2023-03-21T08:44:33.457Z,13.46
2023-03-21T08:46:59.990Z,13.66
2023-03-21T08:49:29.347Z,14.19
2023-03-21T08:51:56.181Z,13.83
2023-03-21T08:54:23.215Z,14.16
2023-03-21T08:56:54.315Z,14.19
2023-03-21T08:59:21.151Z,14.43
2023-03-21T09:01:48.033Z,14.66
2023-03-21T09:04:15.007Z,14.79
2023-03-21T09:06:43.602Z,14.91
2023-03-21T09:09:10.617Z,14.95
2023-03-21T09:11:57.430Z,14.90
2023-03-21T09:14:44.004Z,15.26
2023-03-21T09:17:32.130Z,14.73
2023-03-21T09:20:19.451Z,14.26
2023-03-21T09:22:46.813Z,13.96
2023-03-21T09:25:14.308Z,14.83
2023-03-21T09:27:48.529Z,14.51
2023-03-21T09:30:16.187Z,14.84
2023-03-21T09:32:45.127Z,15.09
2023-03-21T09:35:14.168Z,15.06
2023-03-21T09:37:41.055Z,15.07
2023-03-21T09:40:08.696Z,15.27
2023-03-21T09:42:36.153Z,14.57
2023-03-21T09:45:03.763Z,15.21
2023-03-21T09:47:32.760Z,13.87
2023-03-21T09:50:13.144Z,14.06
2023-03-21T09:52:48.906Z,14.96
2023-03-21T09:55:19.278Z,15.48
2023-03-21T09:57:47.043Z,15.22
2023-03-21T10:00:14.067Z,15.62
2023-03-21T10:02:42.430Z,14.68
2023-03-21T10:05:10.259Z,15.36
2023-03-21T10:07:37.856Z,15.56
2023-03-21T10:10:06.926Z,15.57
2023-03-21T10:12:34.884Z,14.85
2023-03-21T10:15:05.580Z,14.89
2023-03-21T10:17:32.975Z,14.48
2023-03-21T10:20:00.242Z,15.26
2023-03-21T10:22:27.291Z,15.94
2023-03-21T10:24:56.539Z,15.80
2023-03-21T10:27:23.823Z,15.84
2023-03-21T10:29:52.095Z,15.89
2023-03-21T10:32:18.761Z,15.28
2023-03-21T10:34:45.625Z,14.63
2023-03-21T10:37:13.835Z,15.40
2023-03-21T10:39:41.053Z,16.17
2023-03-21T10:42:07.854Z,16.43
2023-03-21T10:44:34.732Z,16.39
2023-03-21T10:47:01.870Z,15.92
2023-03-21T10:49:30.130Z,16.44
2023-03-21T10:51:57.924Z,16.35
2023-03-21T10:54:29.225Z,16.63
2023-03-21T10:56:56.145Z,16.52
2023-03-21T10:59:24.626Z,16.26
2023-03-21T11:01:53.374Z,16.04
2023-03-21T11:04:20.742Z,16.13
2023-03-21T11:06:47.521Z,16.52
2023-03-21T11:09:16.320Z,16.72
2023-03-21T11:11:43.470Z,17.15
2023-03-21T11:14:12.916Z,16.76
2023-03-21T11:16:41.292Z,16.90
2023-03-21T11:19:13.334Z,16.68
2023-03-21T11:21:47.425Z,16.66
2023-03-21T11:24:14.255Z,17.08
2023-03-21T11:26:41.142Z,16.82
2023-03-21T11:29:09.003Z,16.49
2023-03-21T11:31:37.881Z,16.99
2023-03-21T11:34:05.515Z,17.00
2023-03-21T11:36:42.203Z,16.70
2023-03-21T11:39:09.047Z,16.78
2023-03-21T11:41:37.288Z,17.23
2023-03-21T11:44:04.113Z,17.46
2023-03-21T11:46:38.190Z,17.83
2023-03-21T11:49:05.386Z,17.96
2023-03-21T11:51:34.844Z,18.02
2023-03-21T11:54:01.735Z,18.10
2023-03-21T11:56:30.691Z,18.26
2023-03-21T11:58:58.438Z,17.30
2023-03-21T12:01:27.302Z,16.92
2023-03-21T12:03:56.615Z,16.73
2023-03-21T12:06:24.613Z,16.64
2023-03-21T12:08:52.242Z,16.67
2023-03-21T12:11:21.015Z,17.56
2023-03-21T12:13:52.753Z,17.71
2023-03-21T12:16:19.728Z,17.85
2023-03-21T12:18:46.786Z,18.29
2023-03-21T12:21:14.375Z,18.09
2023-03-21T12:23:41.202Z,18.24
2023-03-21T12:26:15.393Z,18.43
2023-03-21T12:28:42.198Z,18.55
2023-03-21T12:31:10.745Z,18.37
2023-03-21T12:33:37.561Z,17.87
2023-03-21T12:36:04.643Z,18.16
2023-03-21T12:38:34.911Z,18.56
2023-03-21T12:41:02.582Z,18.19
2023-03-21T12:43:29.601Z,17.86
2023-03-21T12:45:56.540Z,17.06
2023-03-21T12:48:25.562Z,17.45
2023-03-21T12:50:52.285Z,18.15
2023-03-21T12:53:19.489Z,17.26
2023-03-21T12:55:47.393Z,18.15
2023-03-21T12:58:16.432Z,18.57
2023-03-21T13:00:43.415Z,18.48
2023-03-21T13:06:04.605Z,18.37
2023-03-21T13:08:31.857Z,18.67
2023-03-21T13:11:00.244Z,18.68
2023-03-21T13:13:31.545Z,17.94
2023-03-21T13:15:58.531Z,18.48
2023-03-21T13:18:25.290Z,18.21
2023-03-21T13:20:54.122Z,18.73
2023-03-21T13:23:20.779Z,18.77
2023-03-21T13:25:47.494Z,19.06
2023-03-21T13:28:16.185Z,18.72
2023-03-21T13:30:43.800Z,18.44
2023-03-21T13:33:13.013Z,18.83
2023-03-21T13:35:42.372Z,19.05
2023-03-21T13:38:09.369Z,18.96
2023-03-21T13:40:36.026Z,19.10
2023-03-21T13:43:05.016Z,18.72
2023-03-21T13:45:32.572Z,18.35
2023-03-21T13:48:01.964Z,18.22
2023-03-21T13:50:31.595Z,18.89
2023-03-21T13:52:58.943Z,18.82
2023-03-21T13:55:26.740Z,18.94
2023-03-21T13:57:53.328Z,18.66
2023-03-21T14:00:20.748Z,18.93
2023-03-21T14:02:47.349Z,18.46
2023-03-21T14:05:14.071Z,18.56
2023-03-21T14:07:43.691Z,18.68
2023-03-21T14:10:10.288Z,19.04
2023-03-21T14:12:37.266Z,19.30
2023-03-21T14:15:14.164Z,19.59
2023-03-21T14:17:43.295Z,19.30
2023-03-21T14:20:11.763Z,19.02
2023-03-21T14:22:39.204Z,18.76
2023-03-21T14:25:06.644Z,18.85
2023-03-21T14:27:40.589Z,19.25
2023-03-21T14:30:07.931Z,19.48
2023-03-21T14:32:35.082Z,19.78
2023-03-21T14:35:09.038Z,19.99
2023-03-21T14:37:35.869Z,20.29
2023-03-21T14:40:02.751Z,20.49
2023-03-21T14:42:36.926Z,20.40
2023-03-21T14:45:05.973Z,19.73
2023-03-21T14:47:34.931Z,18.86
2023-03-21T14:50:06.545Z,19.66
2023-03-21T14:52:35.640Z,20.02
2023-03-21T14:55:02.930Z,20.22
2023-03-21T14:57:29.751Z,19.32
2023-03-21T14:59:56.375Z,19.34
2023-03-21T15:02:29.726Z,19.76
2023-03-21T15:04:58.911Z,19.55
2023-03-21T15:07:25.819Z,19.50
2023-03-21T15:09:52.409Z,19.92
2023-03-21T15:12:19.912Z,19.58
2023-03-21T15:14:49.287Z,19.81
2023-03-21T15:17:20.723Z,19.53
2023-03-21T15:19:47.624Z,20.03
2023-03-21T15:22:15.022Z,19.88
2023-03-21T15:24:41.559Z,20.41
2023-03-21T15:27:08.452Z,20.15
2023-03-21T15:29:35.228Z,20.14
2023-03-21T15:32:15.480Z,20.33
2023-03-21T15:34:42.705Z,19.92
2023-03-21T15:37:11.796Z,20.34
2023-03-21T15:39:40.640Z,20.38
2023-03-21T15:42:10.177Z,20.26
2023-03-21T15:44:39.842Z,19.89
2023-03-21T15:47:06.725Z,20.01
2023-03-21T15:49:35.869Z,20.07
2023-03-21T15:52:02.449Z,19.80
2023-03-21T15:54:29.115Z,19.93
2023-03-21T15:56:56.047Z,20.27
2023-03-21T15:59:23.683Z,20.28
2023-03-21T16:01:50.523Z,20.00
2023-03-21T16:04:17.193Z,20.01
2023-03-21T16:06:44.035Z,20.20
2023-03-21T16:09:11.278Z,20.20
2023-03-21T16:11:42.916Z,20.21
2023-03-21T16:14:11.855Z,20.02
2023-03-21T16:16:40.489Z,20.06
2023-03-21T16:19:07.327Z,20.31
2023-03-21T16:21:36.274Z,20.44
2023-03-21T16:24:03.646Z,20.12
2023-03-21T16:26:30.596Z,20.18
2023-03-21T16:29:01.782Z,20.27
2023-03-21T16:31:30.698Z,20.20
2023-03-21T16:33:59.801Z,20.36
2023-03-21T16:36:27.429Z,20.28
2023-03-21T16:38:56.707Z,20.37
2023-03-21T16:41:25.894Z,20.39
2023-03-21T16:43:55.710Z,20.40
2023-03-21T16:46:22.706Z,20.34
2023-03-21T16:48:49.625Z,20.25
2023-03-21T16:51:16.451Z,20.11
2023-03-21T16:53:50.630Z,20.25
2023-03-21T16:56:17.196Z,20.18
2023-03-21T16:58:43.963Z,20.03
2023-03-21T17:01:10.956Z,20.00
2023-03-21T17:03:38.353Z,19.99
2023-03-21T17:06:11.185Z,20.00
2023-03-21T17:08:37.986Z,20.00
2023-03-21T17:11:04.509Z,19.99
2023-03-21T17:13:33.481Z,19.93
2023-03-21T17:16:02.486Z,19.87
2023-03-21T17:18:29.298Z,19.75
2023-03-21T17:20:56.572Z,19.68
2023-03-21T17:23:24.024Z,19.73
2023-03-21T17:25:50.992Z,19.65
2023-03-21T17:28:19.728Z,19.34
2023-03-21T17:30:46.880Z,19.47
2023-03-21T17:33:14.126Z,19.22
2023-03-21T17:35:44.179Z,19.29
2023-03-21T17:38:11.070Z,19.39
2023-03-21T17:40:38.818Z,19.20
2023-03-21T17:43:05.740Z,18.58
2023-03-21T17:45:39.544Z,17.64
2023-03-21T17:48:13.818Z,17.58
2023-03-21T17:50:41.072Z,17.36
2023-03-21T18:08:47.770Z,17.93
2023-03-21T18:11:18.600Z,17.91
2023-03-21T18:13:48.204Z,18.10
2023-03-21T18:16:26.614Z,18.19
2023-03-21T18:18:53.368Z,18.43
2023-03-21T18:21:31.289Z,18.01
2023-03-21T18:23:59.596Z,18.24
2023-03-21T18:30:15.753Z,18.32
2023-03-21T18:32:10.006Z,18.36
2023-03-21T18:34:37.750Z,18.18
2023-03-21T18:37:08.562Z,18.32
2023-03-21T18:42:23.194Z,18.33
2023-03-21T18:44:56.517Z,18.25
2023-03-21T18:50:28.037Z,18.15
2023-03-21T18:52:57.024Z,18.15
2023-03-21T18:55:39.698Z,17.74
2023-03-21T18:58:10.435Z,17.83
2023-03-21T19:00:42.804Z,17.96
2023-03-21T19:03:19.147Z,17.67
2023-03-21T19:05:56.648Z,17.52
2023-03-21T19:08:31.090Z,17.81
2023-03-21T19:11:03.727Z,17.89
2023-03-21T19:13:34.360Z,17.80
2023-03-21T19:16:02.427Z,17.24
2023-03-21T19:21:21.945Z,17.37
2023-03-21T19:24:23.027Z,16.97
2023-03-21T19:26:38.824Z,17.52
2023-03-21T19:29:07.377Z,17.45
2023-03-21T19:31:39.529Z,17.07
2023-03-21T19:34:08.974Z,16.69
2023-03-21T19:36:36.500Z,16.77
2023-03-21T19:39:03.346Z,16.63
2023-03-21T19:41:31.532Z,16.11
2023-03-21T19:43:59.077Z,16.27
2023-03-21T19:46:25.984Z,16.10
2023-03-21T19:48:55.932Z,15.93
2023-03-21T19:51:32.478Z,15.92
2023-03-21T19:53:59.408Z,15.98
2023-03-21T19:56:27.293Z,15.82
2023-03-21T19:58:54.345Z,15.40
2023-03-21T20:01:26.808Z,15.39
2023-03-21T20:03:54.341Z,15.08
2023-03-21T20:06:23.348Z,15.62
2023-03-21T20:09:27.626Z,15.76
2023-03-21T20:11:38.077Z,15.87
2023-03-21T20:14:04.732Z,15.96
2023-03-21T20:16:34.613Z,16.23
2023-03-21T20:19:02.269Z,16.44
2023-03-21T20:39:31.558Z,17.03
2023-03-21T20:41:59.576Z,16.16
2023-03-21T20:50:16.153Z,17.09
2023-03-21T20:53:04.597Z,16.71
2023-03-21T20:55:30.860Z,16.77
2023-03-21T20:58:01.922Z,16.78
2023-03-21T21:00:28.898Z,16.72
2023-03-21T21:02:55.840Z,16.93
2023-03-21T21:05:27.814Z,17.06
2023-03-21T21:08:01.970Z,16.69
2023-03-21T21:10:31.354Z,16.42
2023-03-21T21:13:00.173Z,15.54
2023-03-21T21:18:14.708Z,14.63
2023-03-21T21:20:41.975Z,14.72
2023-03-21T21:23:09.687Z,14.44
2023-03-21T21:25:41.713Z,15.37
2023-03-21T21:28:10.057Z,14.67
2023-03-21T21:30:37.858Z,15.08
2023-03-21T21:33:04.756Z,15.60
2023-03-21T21:35:32.691Z,15.89
2023-03-21T21:37:59.920Z,16.32
2023-03-21T21:40:28.143Z,16.42
2023-03-21T21:42:55.412Z,16.90
2023-03-21T21:45:22.179Z,16.48
2023-03-21T21:50:22.495Z,16.36
2023-03-21T21:52:49.981Z,16.62
2023-03-21T21:55:18.846Z,16.97
2023-03-21T21:57:45.445Z,17.13
2023-03-21T22:00:13.938Z,17.25
2023-03-21T22:02:41.357Z,17.36
2023-03-21T22:05:08.950Z,17.03
2023-03-21T22:07:35.687Z,17.29
2023-03-21T22:10:02.545Z,17.26
2023-03-21T22:12:29.618Z,16.99
2023-03-21T22:15:00.515Z,16.31
2023-03-21T22:17:27.513Z,16.52
2023-03-21T22:20:04.992Z,17.01
2023-03-21T22:22:32.887Z,17.11
2023-03-21T22:24:59.848Z,17.30
2023-03-21T22:27:26.692Z,17.39
2023-03-21T22:29:53.358Z,17.43
2023-03-21T22:32:22.335Z,17.46
2023-03-21T22:34:48.999Z,17.31
2023-03-21T22:37:16.356Z,17.34
2023-03-21T22:39:43.122Z,17.36
2023-03-21T22:42:09.799Z,17.24
2023-03-21T22:44:36.645Z,17.11
2023-03-21T22:47:04.031Z,17.29
2023-03-21T22:49:31.112Z,16.73
2023-03-21T22:52:03.595Z,16.52
2023-03-21T22:54:30.566Z,16.69
2023-03-21T22:56:57.338Z,16.88
2023-03-21T22:59:24.770Z,16.56
2023-03-21T23:01:53.532Z,16.56
2023-03-21T23:04:20.380Z,16.93
2023-03-21T23:06:47.214Z,17.13
2023-03-21T23:09:13.841Z,17.23
2023-03-21T23:11:43.249Z,17.26
2023-03-21T23:14:10.123Z,17.29
2023-03-21T23:16:36.719Z,16.86
2023-03-21T23:19:03.554Z,17.06
2023-03-21T23:21:31.132Z,16.85
2023-03-21T23:23:57.736Z,16.85
2023-03-21T23:26:24.676Z,16.89
2023-03-21T23:28:51.178Z,16.66
2023-03-21T23:31:17.719Z,16.15
2023-03-21T23:33:45.130Z,16.40
2023-03-21T23:36:11.679Z,16.26
2023-03-21T23:38:38.239Z,15.79
2023-03-21T23:41:05.035Z,15.57
2023-03-21T23:43:33.760Z,15.66
2023-03-21T23:46:02.850Z,15.75
2023-03-21T23:48:30.299Z,15.97
2023-03-21T23:50:56.945Z,15.76
2023-03-21T23:53:23.786Z,14.67
2023-03-21T23:55:50.326Z,14.67
2023-03-21T23:58:16.830Z,14.56
